Terminal Aerodrome Forecast
Issued by NWS

Home | Current Version | Previous Version | Text Only | Print | Product List | Glossary On
Versions: 1 2 3 4 5 6 7 8 9 10 11 12 13 14 15
000
FTUS41 KPBZ 291720
TAFDUJ
TAF
KDUJ 291720Z 2918/3018 23013G23KT P6SM BKN050
     FM300000 21008KT P6SM BKN050
     FM300400 21007KT P6SM VCSH BKN040
     FM300900 21006KT P6SM BKN050
     FM301700 21010KT P6SM VCTS BKN035CB=

USA.gov is the U.S. government's official web portal to all federal, state and local government web resources and services.